Time;durP1;ratioP1;P1;durP2;ratioP2;P2;SDS_P1;SDS_P2;PMS_P1;PMS_P2;Temp;Humidity;BMP_temperature;BMP_pressure;BME280_temperature;BME280_humidity;BME280_pressure;Samples;Min_cycle;Max_cycle;Signal;HPM_P1;HPM_P2
2021/03/02 00:00:11;;;;;;;14.23;11.70;;;2.40;35.40;;;;;;5102358;28;20574;-72
2021/03/02 00:02:39;;;;;;;13.18;11.73;;;2.30;34.80;;;;;;5084407;28;20234;-72
2021/03/02 00:05:06;;;;;;;13.98;11.60;;;2.30;35.00;;;;;;5103148;28;20176;-71
2021/03/02 00:07:32;;;;;;;12.15;10.88;;;2.20;35.00;;;;;;5102616;28;20197;-72
2021/03/02 00:09:59;;;;;;;13.68;11.57;;;2.20;35.40;;;;;;5097303;28;20214;-74
2021/03/02 00:12:25;;;;;;;12.82;11.52;;;2.20;35.80;;;;;;5080246;28;20177;-73
2021/03/02 00:14:51;;;;;;;12.00;10.77;;;2.10;35.70;;;;;;5097839;28;20180;-72
2021/03/02 00:17:22;;;;;;;12.67;10.00;;;2.10;35.70;;;;;;5080134;28;20269;-73
2021/03/02 00:19:54;;;;;;;15.15;12.10;;;2.10;35.70;;;;;;5097634;28;20192;-73
2021/03/02 00:22:27;;;;;;;10.43;9.43;;;2.10;35.70;;;;;;5080001;28;20186;-74
2021/03/02 00:24:56;;;;;;;13.18;10.15;;;2.10;35.80;;;;;;5097682;28;20168;-73
2021/03/02 00:27:23;;;;;;;10.35;9.35;;;2.00;35.60;;;;;;5097649;28;20191;-74
2021/03/02 00:29:49;;;;;;;10.32;8.48;;;2.00;35.60;;;;;;5079833;28;20197;-73
2021/03/02 00:32:21;;;;;;;16.33;10.20;;;1.90;35.50;;;;;;5097312;28;20191;-73
2021/03/02 00:34:48;;;;;;;16.42;12.10;;;1.80;35.40;;;;;;5079326;28;20266;-74
2021/03/02 00:37:13;;;;;;;14.65;11.05;;;1.90;35.50;;;;;;5098149;28;20567;-72
2021/03/02 00:53:07;;;;;;;10.07;9.02;;;1.60;36.20;;;;;;5095189;28;20752;-73
2021/03/02 00:55:32;;;;;;;9.93;8.93;;;1.50;36.40;;;;;;5097311;28;20649;-74
2021/03/02 00:57:58;;;;;;;11.30;9.00;;;1.50;36.20;;;;;;5080117;28;20618;-71
2021/03/02 01:00:24;;;;;;;12.87;10.47;;;1.50;36.50;;;;;;5097159;28;20187;-73
2021/03/02 01:02:49;;;;;;;12.43;10.05;;;1.50;36.60;;;;;;5098312;28;20184;-74
2021/03/02 01:05:17;;;;;;;12.23;10.33;;;1.50;36.80;;;;;;5098148;28;20205;-74
2021/03/02 01:07:42;;;;;;;11.25;8.82;;;1.40;36.60;;;;;;5097549;28;20763;-73
2021/03/02 01:10:09;;;;;;;11.63;9.20;;;1.50;36.70;;;;;;5096780;28;20224;-71
2021/03/02 01:12:35;;;;;;;12.63;10.30;;;1.40;36.20;;;;;;5079712;28;20175;-72
2021/03/02 01:15:02;;;;;;;12.37;8.97;;;1.40;36.60;;;;;;5097841;28;20175;-73
2021/03/02 01:17:28;;;;;;;15.23;9.98;;;1.40;36.50;;;;;;5097343;28;20290;-73
2021/03/02 01:19:53;;;;;;;10.70;8.10;;;1.40;36.60;;;;;;5097004;28;20800;-73
2021/03/02 01:22:19;;;;;;;12.57;8.40;;;1.30;37.00;;;;;;5097284;28;20198;-72
2021/03/02 01:24:45;;;;;;;11.93;8.53;;;1.30;37.20;;;;;;5080041;28;20200;-72
2021/03/02 01:27:11;;;;;;;17.13;8.05;;;1.30;37.40;;;;;;5097454;28;20839;-74
2021/03/02 01:29:37;;;;;;;10.20;9.20;;;1.20;37.60;;;;;;5097409;28;20201;-73
2021/03/02 01:32:02;;;;;;;10.80;9.33;;;1.20;37.50;;;;;;5097046;28;20441;-73
2021/03/02 01:34:28;;;;;;;9.60;8.60;;;1.20;38.50;;;;;;5097164;28;20188;-72
2021/03/02 01:36:53;;;;;;;13.87;8.97;;;1.10;37.70;;;;;;5079210;28;20186;-74
2021/03/02 01:39:19;;;;;;;9.23;8.03;;;1.10;38.00;;;;;;5096340;28;20183;-74
2021/03/02 01:41:52;;;;;;;9.60;7.50;;;1.20;38.10;;;;;;5097659;28;20258;-72
2021/03/02 01:44:18;;;;;;;9.30;8.38;;;1.20;38.10;;;;;;5096270;28;20193;-72
2021/03/02 01:46:45;;;;;;;14.23;9.43;;;1.10;38.00;;;;;;5096051;28;20283;-75
2021/03/02 01:49:11;;;;;;;10.60;8.43;;;1.10;38.20;;;;;;5096100;28;20416;-74
2021/03/02 01:51:37;;;;;;;13.97;10.27;;;1.10;38.50;;;;;;5096722;28;20178;-73
2021/03/02 01:54:02;;;;;;;11.30;10.10;;;1.10;38.50;;;;;;5097635;28;20210;-74
2021/03/02 01:56:28;;;;;;;9.00;8.10;;;1.10;38.00;;;;;;5096560;28;20209;-74
2021/03/02 01:58:53;;;;;;;11.70;8.10;;;1.00;38.30;;;;;;5095958;28;20196;-74
2021/03/02 02:01:20;;;;;;;9.90;7.93;;;1.00;38.50;;;;;;5096418;28;20177;-73
2021/03/02 02:04:09;;;;;;;12.18;8.30;;;1.00;38.40;;;;;;5097091;28;20178;-73
2021/03/02 02:06:54;;;;;;;9.70;8.70;;;1.00;38.70;;;;;;5097454;28;20194;-75
2021/03/02 02:09:46;;;;;;;10.30;8.10;;;0.90;38.70;;;;;;5096705;28;20207;-74
2021/03/02 02:12:41;;;;;;;13.43;9.40;;;0.90;38.70;;;;;;5096895;28;20167;-73
2021/03/02 02:15:08;;;;;;;14.82;7.43;;;0.80;38.90;;;;;;5075368;28;20239;-74
2021/03/02 02:17:41;;;;;;;10.02;8.80;;;0.80;39.20;;;;;;5096438;28;20216;-74
2021/03/02 02:20:11;;;;;;;10.05;9.13;;;0.80;39.30;;;;;;5095882;28;20254;-74
2021/03/02 02:23:01;;;;;;;9.60;7.70;;;0.80;39.40;;;;;;5096217;28;20184;-74
2021/03/02 02:26:05;;;;;;;9.55;8.00;;;0.70;39.60;;;;;;5096257;28;20193;-74
2021/03/02 02:28:34;;;;;;;12.55;8.90;;;0.80;39.60;;;;;;5096132;28;20201;-73
2021/03/02 02:31:02;;;;;;;11.15;8.25;;;0.70;39.30;;;;;;5095636;28;20256;-74
2021/03/02 02:33:32;;;;;;;9.60;8.05;;;0.70;39.60;;;;;;5077754;28;20185;-73
2021/03/02 02:36:00;;;;;;;9.02;8.00;;;0.70;39.60;;;;;;5096450;28;20263;-75
2021/03/02 02:38:26;;;;;;;8.80;7.93;;;0.70;39.60;;;;;;5095611;28;20204;-74
2021/03/02 02:40:53;;;;;;;16.55;8.50;;;0.70;39.60;;;;;;5095698;28;20177;-74
2021/03/02 02:43:20;;;;;;;9.65;8.65;;;0.70;39.60;;;;;;5096700;28;20552;-74
2021/03/02 02:45:48;;;;;;;11.38;8.02;;;0.70;39.60;;;;;;5078644;28;20214;-74
2021/03/02 02:48:14;;;;;;;13.13;9.68;;;0.60;39.80;;;;;;5096713;28;20191;-74
2021/03/02 02:50:40;;;;;;;9.88;8.50;;;0.60;40.40;;;;;;5096103;28;20215;-74
2021/03/02 02:53:07;;;;;;;10.93;8.45;;;0.50;40.40;;;;;;5096201;28;20187;-72
2021/03/02 02:55:42;;;;;;;10.98;8.57;;;0.50;40.40;;;;;;5096354;28;20177;-74
2021/03/02 02:58:09;;;;;;;10.70;9.27;;;0.50;40.40;;;;;;5096062;28;20198;-74
2021/03/02 03:00:36;;;;;;;10.50;8.45;;;0.50;41.10;;;;;;5095759;28;20193;-72
2021/03/02 03:03:06;;;;;;;11.25;8.55;;;0.50;41.00;;;;;;5095917;28;20179;-74
2021/03/02 03:05:33;;;;;;;9.45;8.65;;;0.60;40.80;;;;;;5095662;28;20194;-74
2021/03/02 03:08:18;;;;;;;10.32;8.38;;;0.50;40.80;;;;;;5095641;28;20197;-74
2021/03/02 03:10:47;;;;;;;10.65;8.30;;;0.40;40.90;;;;;;5095383;28;20174;-74
2021/03/02 03:13:23;;;;;;;9.77;8.77;;;0.40;41.20;;;;;;5077145;28;20700;-73
2021/03/02 03:15:51;;;;;;;9.30;8.15;;;0.40;41.20;;;;;;5078379;28;20187;-75
2021/03/02 03:18:22;;;;;;;10.23;8.50;;;0.40;41.60;;;;;;5095203;28;20277;-74
2021/03/02 03:20:49;;;;;;;13.27;7.50;;;0.40;41.70;;;;;;5077374;28;20183;-74
2021/03/02 03:23:15;;;;;;;9.07;8.18;;;0.40;41.70;;;;;;5095742;28;20673;-75
2021/03/02 03:25:41;;;;;;;9.95;8.95;;;0.40;41.90;;;;;;5095236;28;20194;-72
2021/03/02 03:28:07;;;;;;;12.13;8.63;;;0.40;41.80;;;;;;5095339;28;20554;-75
2021/03/02 03:30:35;;;;;;;8.38;7.57;;;0.30;41.60;;;;;;5095107;28;20163;-74
2021/03/02 03:33:05;;;;;;;11.38;8.25;;;0.30;41.80;;;;;;5095066;28;20198;-75
2021/03/02 03:35:32;;;;;;;8.55;7.40;;;0.40;41.90;;;;;;5095560;28;20184;-74
2021/03/02 03:37:58;;;;;;;9.45;8.50;;;0.40;42.20;;;;;;5076867;28;20298;-73
2021/03/02 03:40:24;;;;;;;10.50;8.73;;;0.30;42.20;;;;;;5094893;28;20237;-74
2021/03/02 03:42:49;;;;;;;12.90;8.60;;;0.30;42.40;;;;;;5095720;28;20173;-74
2021/03/02 03:45:15;;;;;;;14.53;8.27;;;0.30;42.50;;;;;;5077065;28;20484;-74
2021/03/02 03:47:41;;;;;;;11.23;8.00;;;0.30;42.40;;;;;;5095732;28;20210;-74
2021/03/02 03:50:08;;;;;;;12.27;7.55;;;0.30;42.60;;;;;;5096126;28;20475;-75
2021/03/02 03:52:37;;;;;;;10.50;9.50;;;0.30;42.60;;;;;;5099107;28;20169;-73
2021/03/02 03:55:04;;;;;;;10.95;8.10;;;0.30;42.90;;;;;;5099187;28;20187;-74
2021/03/02 03:57:30;;;;;;;12.25;7.90;;;0.20;42.70;;;;;;5080633;28;20197;-73
2021/03/02 03:59:57;;;;;;;7.93;7.22;;;0.20;42.50;;;;;;5100216;28;20443;-73
2021/03/02 04:02:23;;;;;;;7.53;6.72;;;0.20;42.90;;;;;;5100670;28;20170;-74
2021/03/02 04:04:49;;;;;;;10.23;8.52;;;0.20;43.00;;;;;;5098929;28;20173;-74
2021/03/02 04:07:15;;;;;;;9.50;7.25;;;0.20;42.90;;;;;;5098953;28;20248;-74
2021/03/02 04:09:42;;;;;;;10.10;8.97;;;0.10;42.70;;;;;;5097944;28;20538;-74
2021/03/02 04:12:11;;;;;;;9.68;7.53;;;0.10;42.90;;;;;;5099407;28;20252;-72
2021/03/02 04:14:37;;;;;;;17.40;8.38;;;0.10;43.50;;;;;;5098464;28;20173;-74
2021/03/02 04:17:03;;;;;;;8.63;7.80;;;0.10;44.10;;;;;;5079889;28;20207;-73
2021/03/02 04:19:30;;;;;;;8.20;7.30;;;0.10;44.10;;;;;;5079676;28;20231;-75
2021/03/02 04:21:55;;;;;;;14.45;7.75;;;0.10;43.90;;;;;;5081183;28;20216;-74
2021/03/02 04:24:21;;;;;;;11.13;7.87;;;0.20;44.20;;;;;;5098824;28;20188;-74
2021/03/02 04:26:47;;;;;;;8.80;6.60;;;0.10;44.10;;;;;;5098191;28;20238;-75
2021/03/02 04:29:12;;;;;;;7.97;7.17;;;0.10;45.00;;;;;;5098378;28;20198;-73
2021/03/02 04:31:38;;;;;;;9.17;7.97;;;0.10;51.50;;;;;;5098639;28;20183;-74
2021/03/02 04:34:04;;;;;;;8.47;7.60;;;0.00;43.40;;;;;;5098726;28;20368;-74
2021/03/02 04:36:29;;;;;;;8.77;7.63;;;0.00;44.00;;;;;;5080613;28;20501;-74
2021/03/02 04:38:55;;;;;;;11.60;7.43;;;0.00;44.00;;;;;;5099427;28;20226;-74
2021/03/02 04:41:20;;;;;;;9.50;8.50;;;0.00;44.00;;;;;;5099168;28;20178;-72
2021/03/02 04:43:46;;;;;;;11.00;9.90;;;0.00;44.10;;;;;;5100090;28;20246;-72
2021/03/02 04:46:13;;;;;;;8.83;7.93;;;;;;;;;;5099431;28;20284;-74
2021/03/02 04:48:38;;;;;;;18.15;9.10;;;0.00;43.50;;;;;;5099086;28;20482;-73
2021/03/02 04:51:04;;;;;;;10.80;9.60;;;-0.10;44.00;;;;;;5099085;28;20170;-75
2021/03/02 04:53:30;;;;;;;16.58;10.32;;;-0.10;44.30;;;;;;5082651;28;20242;-73
2021/03/02 04:55:55;;;;;;;15.60;10.67;;;-0.10;44.20;;;;;;5098365;28;20218;-74
2021/03/02 04:58:21;;;;;;;15.40;10.60;;;-0.10;44.10;;;;;;5098041;28;20610;-73
2021/03/02 05:00:46;;;;;;;11.57;9.30;;;-0.10;44.50;;;;;;5097252;28;20630;-73
2021/03/02 05:03:12;;;;;;;10.63;9.67;;;-0.10;44.40;;;;;;5097611;28;20193;-72
2021/03/02 05:05:37;;;;;;;15.60;11.83;;;-0.10;44.00;;;;;;5097178;28;20208;-74
2021/03/02 05:08:03;;;;;;;14.57;12.97;;;-0.10;44.60;;;;;;5096627;28;20264;-73
2021/03/02 05:10:29;;;;;;;11.95;10.38;;;-0.20;44.30;;;;;;5096769;28;20188;-73
2021/03/02 05:12:55;;;;;;;12.17;10.90;;;-0.20;44.70;;;;;;5096748;28;20170;-74
2021/03/02 05:15:20;;;;;;;14.80;11.43;;;-0.20;44.40;;;;;;5097173;28;20260;-74
2021/03/02 05:17:46;;;;;;;14.20;11.33;;;-0.20;44.00;;;;;;5078106;28;20221;-74
2021/03/02 05:20:12;;;;;;;11.90;10.30;;;-0.20;44.20;;;;;;5092576;28;20212;-73
2021/03/02 05:22:37;;;;;;;16.20;12.98;;;-0.20;43.90;;;;;;5074658;28;20268;-73
2021/03/02 05:25:04;;;;;;;17.23;11.93;;;-0.30;43.80;;;;;;5092480;28;20209;-72
2021/03/02 05:27:30;;;;;;;12.52;10.57;;;-0.30;43.70;;;;;;5074261;28;20690;-72
2021/03/02 05:29:55;;;;;;;21.80;10.77;;;-0.30;43.70;;;;;;5091775;28;20256;-73
2021/03/02 05:32:21;;;;;;;14.03;11.47;;;-0.30;44.00;;;;;;5092532;28;20302;-73
2021/03/02 05:34:46;;;;;;;12.77;11.47;;;-0.30;43.70;;;;;;5092232;28;20185;-72
2021/03/02 05:37:12;;;;;;;14.27;11.30;;;-0.30;43.80;;;;;;5091679;28;20215;-72
2021/03/02 05:39:37;;;;;;;11.07;9.97;;;-0.30;43.70;;;;;;5073224;28;20599;-71
2021/03/02 05:42:06;;;;;;;15.70;10.57;;;-0.30;43.70;;;;;;5092139;28;20216;-71
2021/03/02 05:44:33;;;;;;;12.73;11.30;;;-0.40;44.00;;;;;;5074162;28;20177;-72
2021/03/02 05:46:59;;;;;;;14.63;11.10;;;-0.40;44.20;;;;;;5092034;28;20282;-73
2021/03/02 05:49:25;;;;;;;11.27;9.30;;;-0.40;44.00;;;;;;5091447;28;20643;-71
2021/03/02 05:51:51;;;;;;;14.95;11.70;;;-0.40;44.10;;;;;;5093628;28;20538;-72
2021/03/02 05:54:17;;;;;;;15.73;11.17;;;-0.40;44.30;;;;;;5098747;28;20177;-73
2021/03/02 05:56:43;;;;;;;12.75;11.00;;;-0.40;44.50;;;;;;5092155;28;20181;-72
2021/03/02 05:59:09;;;;;;;12.40;9.93;;;-0.40;44.50;;;;;;5091064;28;20174;-71
2021/03/02 06:01:35;;;;;;;13.30;11.47;;;-0.50;44.30;;;;;;5091908;28;20234;-73
2021/03/02 06:04:01;;;;;;;11.23;9.27;;;-0.40;44.80;;;;;;5092259;28;20498;-73
2021/03/02 06:06:30;;;;;;;11.90;10.70;;;-0.40;44.40;;;;;;5091939;28;20788;-73
2021/03/02 06:08:55;;;;;;;11.52;10.27;;;-0.50;44.30;;;;;;5072823;28;20463;-73
2021/03/02 06:11:25;;;;;;;12.47;11.20;;;-0.50;44.60;;;;;;5074276;28;20266;-73
2021/03/02 06:13:50;;;;;;;13.73;10.93;;;-0.40;44.80;;;;;;5072605;28;20218;-73
2021/03/02 06:16:16;;;;;;;12.00;10.23;;;-0.40;44.80;;;;;;5091222;28;20213;-73
2021/03/02 06:18:50;;;;;;;12.63;9.97;;;-0.40;44.90;;;;;;5090903;28;20239;-73
2021/03/02 06:21:16;;;;;;;15.98;10.82;;;-0.40;45.20;;;;;;5073700;28;20213;-73
2021/03/02 06:23:46;;;;;;;11.43;9.95;;;-0.30;45.20;;;;;;5091419;28;20762;-73
2021/03/02 06:26:24;;;;;;;17.90;11.13;;;-0.30;45.00;;;;;;5091613;28;20206;-73
2021/03/02 06:28:57;;;;;;;13.85;12.50;;;-0.30;45.10;;;;;;5094536;28;20247;-73
2021/03/02 06:31:39;;;;;;;11.98;10.60;;;-0.30;45.60;;;;;;5080561;28;20177;-73
2021/03/02 06:34:13;;;;;;;17.10;12.52;;;-0.30;45.90;;;;;;5094824;28;20180;-73
2021/03/02 06:36:42;;;;;;;14.80;10.88;;;-0.20;46.00;;;;;;5094201;28;20327;-73
2021/03/02 06:39:39;;;;;;;13.50;9.60;;;-2.10;44.60;;;;;;5092742;28;20262;-72
2021/03/02 06:42:21;;;;;;;13.23;11.80;;;-0.10;46.30;;;;;;5093143;28;20675;-74
2021/03/02 06:45:02;;;;;;;12.15;11.05;;;1.10;54.10;;;;;;5091843;28;20603;-72
2021/03/02 06:47:39;;;;;;;20.10;11.73;;;1.10;54.70;;;;;;5091909;28;20227;-72
2021/03/02 06:50:22;;;;;;;11.38;10.07;;;2.40;46.70;;;;;;5090995;28;20172;-72
2021/03/02 06:52:48;;;;;;;11.55;9.63;;;3.60;35.90;;;;;;5073631;28;20587;-73
2021/03/02 06:55:16;;;;;;;14.63;9.03;;;4.20;30.40;;;;;;5092196;28;20486;-72
2021/03/02 06:57:42;;;;;;;11.65;9.57;;;4.40;28.00;;;;;;5091473;28;20423;-72
2021/03/02 07:00:09;;;;;;;12.20;10.95;;;4.20;27.00;;;;;;5091690;28;20184;-71
2021/03/02 07:02:47;;;;;;;13.23;9.85;;;3.90;26.80;;;;;;5091776;28;20169;-72
2021/03/02 07:05:19;;;;;;;12.52;11.30;;;3.50;27.40;;;;;;5091349;28;20177;-72
2021/03/02 07:07:47;;;;;;;17.25;10.88;;;3.10;28.40;;;;;;5091309;28;20196;-72
2021/03/02 07:10:14;;;;;;;15.18;11.38;;;2.90;29.40;;;;;;5091484;28;20198;-72
2021/03/02 07:12:41;;;;;;;14.15;11.60;;;2.60;30.50;;;;;;5092530;28;20432;-72
2021/03/02 07:15:09;;;;;;;13.43;11.02;;;2.50;31.50;;;;;;5092299;28;20244;-72
2021/03/02 07:17:41;;;;;;;14.27;10.68;;;2.40;32.60;;;;;;5074330;28;20213;-72
2021/03/02 07:20:12;;;;;;;13.15;11.48;;;2.40;33.60;;;;;;5077597;28;20215;-72
2021/03/02 07:22:45;;;;;;;14.07;12.25;;;2.40;34.20;;;;;;5097363;28;20176;-73
2021/03/02 07:25:13;;;;;;;19.10;13.73;;;2.40;34.70;;;;;;5094766;28;20176;-73
2021/03/02 07:27:42;;;;;;;16.50;14.77;;;2.50;35.00;;;;;;5095896;28;20690;-73
2021/03/02 07:30:10;;;;;;;17.85;14.70;;;2.60;34.90;;;;;;5100414;28;20189;-72
2021/03/02 07:32:36;;;;;;;15.65;14.02;;;2.60;34.90;;;;;;5098393;28;20218;-73
2021/03/02 07:35:02;;;;;;;13.43;11.60;;;2.70;35.00;;;;;;5099248;28;20184;-73
2021/03/02 07:37:28;;;;;;;13.80;11.90;;;2.70;35.40;;;;;;5097743;28;20293;-73
2021/03/02 07:40:10;;;;;;;19.50;13.23;;;2.80;35.10;;;;;;5077405;28;20257;-72
2021/03/02 07:42:37;;;;;;;13.45;11.95;;;2.80;34.60;;;;;;5079016;28;20226;-72
2021/03/02 07:45:04;;;;;;;12.82;11.50;;;2.80;35.50;;;;;;5108752;28;20161;-72
2021/03/02 07:47:41;;;;;;;13.27;11.95;;;3.00;35.30;;;;;;5107856;28;20193;-72
2021/03/02 07:50:32;;;;;;;17.63;12.70;;;3.10;34.40;;;;;;5078700;28;20193;-72
2021/03/02 07:53:16;;;;;;;18.80;12.68;;;3.10;34.00;;;;;;5078892;28;20193;-73
2021/03/02 07:55:42;;;;;;;13.32;11.75;;;3.20;34.60;;;;;;5097992;28;20654;-74
2021/03/02 07:58:21;;;;;;;13.82;12.52;;;3.30;34.10;;;;;;5097871;28;20205;-73
2021/03/02 08:00:50;;;;;;;13.80;12.50;;;3.40;33.50;;;;;;5079067;28;20181;-71
2021/03/02 08:03:21;;;;;;;13.50;11.93;;;3.50;33.10;;;;;;5079643;28;20177;-74
2021/03/02 08:05:48;;;;;;;12.70;11.40;;;3.60;33.90;;;;;;5097789;28;20760;-72
2021/03/02 08:08:23;;;;;;;17.17;14.55;;;3.80;32.00;;;;;;5097260;28;20204;-74
2021/03/02 08:10:53;;;;;;;14.55;11.57;;;3.90;31.40;;;;;;5079228;28;20189;-75
2021/03/02 08:13:37;;;;;;;13.77;11.70;;;4.00;30.90;;;;;;5098334;28;20653;-74
2021/03/02 08:16:05;;;;;;;12.75;11.55;;;4.10;29.80;;;;;;5098019;28;20177;-75
2021/03/02 08:18:36;;;;;;;11.15;10.15;;;4.10;30.50;;;;;;5097708;28;20287;-72
2021/03/02 08:21:18;;;;;;;17.33;11.88;;;4.20;30.10;;;;;;5097159;28;20230;-75
2021/03/02 08:23:50;;;;;;;13.68;12.43;;;4.40;30.20;;;;;;5085140;28;20177;-75
2021/03/02 08:26:22;;;;;;;14.77;13.05;;;4.50;29.20;;;;;;5080775;28;20242;-75
2021/03/02 08:29:05;;;;;;;13.90;12.60;;;4.70;29.10;;;;;;5098407;28;20202;-74
2021/03/02 08:31:31;;;;;;;15.75;12.82;;;4.70;28.80;;;;;;5098493;28;20230;-74
2021/03/02 08:34:02;;;;;;;13.05;11.73;;;4.80;28.30;;;;;;5098359;28;20674;-75
2021/03/02 08:36:29;;;;;;;15.80;11.05;;;5.00;28.40;;;;;;5095105;28;20197;-73
2021/03/02 08:38:55;;;;;;;17.83;13.60;;;5.10;28.40;;;;;;5093525;28;20648;-73
2021/03/02 08:41:38;;;;;;;13.97;12.57;;;5.20;28.10;;;;;;5093893;28;20295;-73
2021/03/02 08:44:04;;;;;;;14.98;13.32;;;5.40;27.60;;;;;;5094512;28;20181;-73
2021/03/02 08:46:35;;;;;;;19.60;11.98;;;5.50;27.70;;;;;;5093409;28;20201;-73
2021/03/02 08:49:11;;;;;;;19.42;13.02;;;;;;;;;;5078136;28;20202;-75
2021/03/02 08:51:38;;;;;;;14.02;12.65;;;5.80;26.90;;;;;;5100031;28;20219;-75
2021/03/02 08:54:05;;;;;;;16.02;12.65;;;6.00;26.60;;;;;;5099154;28;20534;-74
2021/03/02 08:56:31;;;;;;;13.85;12.52;;;6.00;26.50;;;;;;5097626;28;20242;-74
2021/03/02 08:59:11;;;;;;;13.80;12.35;;;6.10;26.00;;;;;;5097067;28;20266;-75
2021/03/02 09:01:38;;;;;;;13.25;12.15;;;6.20;26.10;;;;;;5097071;28;20174;-74
2021/03/02 09:04:12;;;;;;;17.50;13.87;;;6.30;26.10;;;;;;5094493;28;20662;-74
2021/03/02 09:06:40;;;;;;;15.80;14.20;;;6.40;25.90;;;;;;5096420;28;20452;-74
2021/03/02 09:09:14;;;;;;;13.35;12.15;;;6.60;25.30;;;;;;5079439;28;20207;-75
2021/03/02 09:11:42;;;;;;;24.40;12.80;;;6.60;25.30;;;;;;5080562;28;20183;-74
2021/03/02 09:14:10;;;;;;;14.68;13.35;;;6.70;25.40;;;;;;5099167;28;20410;-74
2021/03/02 09:16:47;;;;;;;15.13;13.60;;;6.80;25.20;;;;;;5083054;28;20210;-72
2021/03/02 09:19:21;;;;;;;14.87;13.37;;;7.00;24.60;;;;;;5099255;28;20179;-73
2021/03/02 09:21:52;;;;;;;15.13;13.70;;;7.00;25.10;;;;;;5083333;28;20465;-73
2021/03/02 09:24:21;;;;;;;13.43;12.23;;;7.20;24.40;;;;;;5101434;28;20457;-73
2021/03/02 09:27:02;;;;;;;14.40;13.10;;;7.30;24.70;;;;;;5081472;28;20895;-75
2021/03/02 09:29:33;;;;;;;13.73;12.43;;;7.40;24.50;;;;;;5101975;28;20514;-75
2021/03/02 09:32:03;;;;;;;14.30;12.37;;;7.60;23.60;;;;;;5081216;28;20419;-74
2021/03/02 09:34:56;;;;;;;14.63;13.23;;;7.70;23.80;;;;;;5100561;28;20407;-73
2021/03/02 09:37:22;;;;;;;16.43;14.27;;;7.90;23.60;;;;;;5086392;28;20516;-73
2021/03/02 09:39:56;;;;;;;19.07;12.17;;;7.90;23.20;;;;;;5091113;28;20451;-73
2021/03/02 09:42:26;;;;;;;14.67;13.17;;;8.10;22.90;;;;;;5081488;28;20430;-75
2021/03/02 09:44:54;;;;;;;14.93;13.63;;;8.20;23.20;;;;;;5098631;28;20451;-74
2021/03/02 09:47:31;;;;;;;15.03;13.83;;;8.30;23.00;;;;;;5098989;28;20474;-73
2021/03/02 09:50:02;;;;;;;17.67;13.80;;;8.40;22.70;;;;;;5092916;28;20407;-74
2021/03/02 09:52:39;;;;;;;21.10;13.70;;;8.50;22.90;;;;;;5092507;28;20454;-73
2021/03/02 09:55:12;;;;;;;14.67;13.20;;;8.50;22.40;;;;;;5073888;28;20414;-72
2021/03/02 09:58:13;;;;;;;14.73;13.53;;;8.60;22.40;;;;;;5074083;28;20446;-73
2021/03/02 10:00:41;;;;;;;15.60;14.00;;;8.60;22.40;;;;;;5091508;28;20411;-72
2021/03/02 10:03:07;;;;;;;16.83;15.20;;;8.70;22.50;;;;;;5091445;28;20992;-72
2021/03/02 10:05:41;;;;;;;15.93;14.47;;;8.80;22.60;;;;;;5073501;28;20487;-72
2021/03/02 10:08:27;;;;;;;27.17;15.33;;;9.00;22.70;;;;;;5091559;28;20703;-72
2021/03/02 10:10:54;;;;;;;18.07;14.90;;;;;;;;;;5072930;28;20758;-73
2021/03/02 10:13:35;;;;;;;13.77;12.50;;;9.30;21.70;;;;;;5091373;28;20400;-73
2021/03/02 10:16:19;;;;;;;15.20;13.67;;;9.40;22.10;;;;;;5092309;28;20767;-73
2021/03/02 10:19:05;;;;;;;14.63;13.27;;;9.40;21.50;;;;;;5090624;28;20861;-73
2021/03/02 10:21:52;;;;;;;17.47;15.63;;;9.50;21.50;;;;;;5073937;28;20921;-72
2021/03/02 10:24:25;;;;;;;12.70;11.63;;;9.60;21.60;;;;;;5091932;28;20416;-73
2021/03/02 10:26:51;;;;;;;18.33;14.67;;;9.70;21.30;;;;;;5092260;28;20459;-73
2021/03/02 10:29:17;;;;;;;14.03;12.87;;;9.90;21.10;;;;;;5091751;28;20406;-73
2021/03/02 10:31:43;;;;;;;14.60;13.40;;;10.00;20.20;;;;;;5092008;28;20421;-72
2021/03/02 10:34:10;;;;;;;15.50;14.10;;;10.00;20.00;;;;;;5091326;28;20165;-73
2021/03/02 10:36:40;;;;;;;13.50;12.17;;;10.20;19.90;;;;;;5073384;28;20190;-72
2021/03/02 10:39:16;;;;;;;15.77;13.93;;;10.40;19.40;;;;;;5091241;28;20450;-72
2021/03/02 10:41:42;;;;;;;15.67;14.27;;;10.50;19.50;;;;;;5091298;28;20423;-72
2021/03/02 10:44:08;;;;;;;16.90;15.13;;;10.60;19.20;;;;;;5091254;28;20412;-72
2021/03/02 10:46:35;;;;;;;16.03;14.37;;;10.50;19.40;;;;;;5090906;28;20448;-72
2021/03/02 10:49:01;;;;;;;14.20;13.00;;;10.60;19.40;;;;;;5072503;28;20442;-71
2021/03/02 10:51:28;;;;;;;13.53;10.60;;;10.80;18.90;;;;;;5072828;28;20430;-71
2021/03/02 10:53:54;;;;;;;15.87;14.57;;;10.90;19.00;;;;;;5072579;28;20599;-71
2021/03/02 10:56:20;;;;;;;14.80;13.33;;;10.80;18.90;;;;;;5090898;28;20423;-72
2021/03/02 10:58:46;;;;;;;18.87;14.40;;;10.90;19.00;;;;;;5092765;28;20790;-72
2021/03/02 11:01:12;;;;;;;22.67;14.17;;;11.10;19.10;;;;;;5099929;28;20185;-74
2021/03/02 11:03:38;;;;;;;15.47;14.10;;;11.30;18.40;;;;;;5100317;28;20450;-75
2021/03/02 11:06:04;;;;;;;17.03;14.73;;;11.30;17.80;;;;;;5100871;28;20489;-74
2021/03/02 11:08:30;;;;;;;16.03;14.63;;;11.40;18.40;;;;;;5102127;28;20441;-74
2021/03/02 11:10:55;;;;;;;20.13;15.90;;;11.50;17.80;;;;;;5102447;28;20503;-74
2021/03/02 11:13:22;;;;;;;16.33;14.63;;;11.60;17.30;;;;;;5081243;28;20175;-74
2021/03/02 11:15:47;;;;;;;17.93;16.30;;;11.80;17.10;;;;;;5099728;28;20223;-74
2021/03/02 11:18:13;;;;;;;13.97;12.60;;;11.90;16.70;;;;;;5099257;28;20447;-74
2021/03/02 11:20:43;;;;;;;15.70;12.97;;;12.00;15.70;;;;;;5099105;28;20166;-74
2021/03/02 11:23:09;;;;;;;14.10;12.83;;;12.10;15.50;;;;;;5099642;28;20169;-74
2021/03/02 11:25:34;;;;;;;14.87;13.40;;;12.00;15.10;;;;;;5081106;28;20473;-75
2021/03/02 11:28:01;;;;;;;19.73;14.30;;;12.00;15.40;;;;;;5099188;28;20426;-75
2021/03/02 11:30:26;;;;;;;15.97;14.43;;;12.20;14.30;;;;;;5083929;28;20482;-74
2021/03/02 11:32:52;;;;;;;16.13;14.93;;;12.30;14.10;;;;;;5102791;28;20403;-74
2021/03/02 11:35:18;;;;;;;14.70;13.60;;;12.30;14.10;;;;;;5102844;28;20260;-74
2021/03/02 11:37:44;;;;;;;16.10;14.47;;;12.20;13.80;;;;;;5095771;28;20276;-74
2021/03/02 11:40:18;;;;;;;15.43;14.00;;;12.20;14.20;;;;;;5075587;28;20523;-73
2021/03/02 11:42:44;;;;;;;14.33;13.10;;;12.20;14.40;;;;;;5095104;28;20421;-73
2021/03/02 11:45:11;;;;;;;17.80;16.33;;;12.40;14.20;;;;;;5075682;28;20419;-72
2021/03/02 11:47:38;;;;;;;21.17;15.57;;;12.40;14.30;;;;;;5094187;28;20538;-73
2021/03/02 11:50:05;;;;;;;15.03;13.97;;;12.50;14.70;;;;;;5074910;28;20415;-73
2021/03/02 11:52:31;;;;;;;16.17;14.83;;;12.60;14.40;;;;;;5094138;28;20399;-73
2021/03/02 11:54:56;;;;;;;15.40;14.20;;;12.80;14.00;;;;;;5093602;28;20840;-73
2021/03/02 11:57:22;;;;;;;14.03;12.87;;;12.90;14.40;;;;;;5093634;28;20430;-72
2021/03/02 11:59:47;;;;;;;17.10;15.70;;;13.00;14.40;;;;;;5093079;28;20185;-74
2021/03/02 12:02:14;;;;;;;19.73;17.23;;;13.10;14.30;;;;;;5094044;28;20536;-73
2021/03/02 12:04:39;;;;;;;17.63;16.20;;;13.10;14.40;;;;;;5093714;28;20173;-73
2021/03/02 12:07:05;;;;;;;15.80;14.60;;;13.20;14.40;;;;;;5093398;28;20463;-72
2021/03/02 12:09:31;;;;;;;18.40;17.00;;;13.20;14.20;;;;;;5074626;28;20423;-73
2021/03/02 12:11:57;;;;;;;18.57;17.17;;;13.30;13.90;;;;;;5092322;28;20616;-73
2021/03/02 12:14:23;;;;;;;15.87;14.30;;;13.40;13.70;;;;;;5093518;28;20174;-73
2021/03/02 12:16:48;;;;;;;16.67;15.10;;;13.40;13.00;;;;;;5075109;28;20445;-72
2021/03/02 12:19:14;;;;;;;19.33;15.10;;;13.50;13.60;;;;;;5092829;28;20218;-73
2021/03/02 12:21:39;;;;;;;13.93;12.87;;;13.60;12.80;;;;;;5093284;28;20253;-72
2021/03/02 12:24:05;;;;;;;15.17;13.93;;;13.50;10.40;;;;;;5093144;28;20174;-73
2021/03/02 12:26:31;;;;;;;15.07;14.00;;;13.50;9.90;;;;;;5074650;28;20227;-73
2021/03/02 12:28:57;;;;;;;16.17;14.50;;;13.60;8.60;;;;;;5074310;28;20435;-73
2021/03/02 12:31:22;;;;;;;15.83;14.50;;;13.60;9.50;;;;;;5092753;28;20222;-73
2021/03/02 12:33:48;;;;;;;12.73;11.93;;;13.80;9.70;;;;;;5092843;28;20580;-73
2021/03/02 12:36:14;;;;;;;14.97;13.83;;;13.90;7.20;;;;;;5092982;28;20169;-72
2021/03/02 12:38:39;;;;;;;15.10;13.80;;;13.90;6.80;;;;;;5092721;28;20205;-73
2021/03/02 12:41:05;;;;;;;15.30;14.30;;;13.90;7.20;;;;;;5074347;28;20551;-73
2021/03/02 12:43:30;;;;;;;15.10;13.67;;;14.00;6.60;;;;;;5092858;28;20519;-73
2021/03/02 12:45:56;;;;;;;14.90;13.70;;;14.00;7.30;;;;;;5094053;28;20218;-75
2021/03/02 12:48:21;;;;;;;14.67;13.57;;;14.20;6.00;;;;;;5096336;28;20200;-74
2021/03/02 12:50:47;;;;;;;16.57;15.30;;;14.20;7.30;;;;;;5095891;28;20534;-73
2021/03/02 12:53:13;;;;;;;16.40;15.17;;;14.20;5.20;;;;;;5078204;28;20223;-74
2021/03/02 12:55:40;;;;;;;14.23;13.43;;;14.20;5.50;;;;;;5096309;28;20178;-75
2021/03/02 12:58:06;;;;;;;15.00;14.00;;;14.20;5.70;;;;;;5096177;28;20290;-75
2021/03/02 13:00:31;;;;;;;14.20;13.30;;;14.30;4.80;;;;;;5077309;28;20757;-74